LIME/BGY METAR and TAF weather

Enter ICAO airport designator
Station Type Date Time Source
LIME METAR 2022/06/27 08:50 UTC NOAA

LIME 270850Z 24006KT CAVOK 27/17 Q1016 NOSIG


Station Type Date Time Source
LIME Decoded METAR 2022/06/27 08:50 UTC NOAA

Bergamo / Orio Al Serio, Italy (LIME) 45-40N 009-42E 237M
Jun 27, 2022 - 04:50 AM EDT / 2022.06.27 0850 UTC
Wind: from the WSW (240 degrees) at 7 MPH (6 KT):0
Visibility: greater than 7 mile(s):0
Temperature: 80 F (27 C)
Dew Point: 62 F (17 C)
Relative Humidity: 54%
Pressure (altimeter): 30.00 in. Hg (1016 hPa)
ob: LIME 270850Z 24006KT CAVOK 27/17 Q1016 NOSIG
cycle: 9

Station Type Date Time Source
LIME TAF 2022/06/27 06:22 UTC NOAA

TAF LIME 270500Z 2706/2806 VRB05KT CAVOK
BECMG 2710/2712 13010KT
BECMG 2716/2718 VRB05KT PROB40
TEMPO 2718/2803 SHRA BKN014

Example: see airport list